River, KY

6:54 AM EST on December 07, 2016 (GMT -0500)
Big Sandy Reg AP, Prestonsbur | | Change Station

Elev 1220 ft 37.75 °N, 82.64 °W | Updated 19 minutes ago

Overcast
Overcast
36 °F
Feels Like 34 °F
N
4
Wind Variable Wind from North

Today
High -- | Low -- °F
--% Chance of Precip.
Yesterday
High -- | Low -- °F
Precip. -- in
Pressure 30.08 in
Visibility 10.0 miles
Clouds Overcast 2200 ft
Windchill 34 °F
Dew Point 33 °F
Humidity 89%
Rainfall 0.00 in
Snow Depth Not available.
7:33 AM 5:11 PM
First Quarter, 51% visible
METAR KSJS 071135Z AUTO 01003KT 10SM OVC022 02/01 A3008 RMK AO2 T00230006
Pressure 30.08 in
Visibility 10.0 miles
Clouds Overcast 2200 ft
Windchill 34 °F
Dew Point 33 °F
Humidity 89%
Rainfall 0.00 in
Snow Depth Not available.
7:33 AM 5:11 PM
First Quarter, 51% visible
METAR KSJS 071135Z AUTO 01003KT 10SM OVC022 02/01 A3008 RMK AO2 T00230006

10-Day Weather Forecast

Almanac

Astronomy

Dec. 07, 2016 Rise Set
Actual Time
Civil Twilight
Nautical Twilight
Astronomical Twilight
Moon
Length of Visible Light
Length of Day
Tomorrow will be .
, % of the Moon is Illuminated

Today's Extremes

State Highs State Lows

Community

WunderPhotos

Upload Photos

1,956,111 photos uploaded!

WunderBlog® & News

Nearby

Air Quality

  Air Quality AQ Index Pollutant
Not available.

Snow Depth

Station Depth Elevation

Earthquake Activity

City Distance Mag. Time & Date
Minimum magnitude displayed is 2.5.

Coastal Water Temperatures

Place Temperature

Stations

Nearby Weather Stations

Station Location Temp. Windchill Dew Point Humidity Wind Precip. Elev Updated Type
                   

Watches & Warnings

There are currently no watches in effect.